sensor_id;sensor_type;location;lat;lon;timestamp;P1;durP1;ratioP1;P2;durP2;ratioP2
357;SDS011;167;47.558;7.602;2022-08-01T00:00:11;4.13;;;3.90;;
357;SDS011;167;47.558;7.602;2022-08-01T00:02:37;3.50;;;3.30;;
357;SDS011;167;47.558;7.602;2022-08-01T00:05:03;4.00;;;3.70;;
357;SDS011;167;47.558;7.602;2022-08-01T00:07:35;3.30;;;3.20;;
357;SDS011;167;47.558;7.602;2022-08-01T00:10:02;2.87;;;2.77;;
357;SDS011;167;47.558;7.602;2022-08-01T00:12:28;2.67;;;2.57;;
357;SDS011;167;47.558;7.602;2022-08-01T00:14:54;3.23;;;2.93;;
357;SDS011;167;47.558;7.602;2022-08-01T00:17:20;3.23;;;3.03;;
357;SDS011;167;47.558;7.602;2022-08-01T00:19:46;2.70;;;2.60;;
357;SDS011;167;47.558;7.602;2022-08-01T00:22:12;4.60;;;3.10;;
357;SDS011;167;47.558;7.602;2022-08-01T00:24:38;2.60;;;2.40;;
357;SDS011;167;47.558;7.602;2022-08-01T00:27:04;2.57;;;2.47;;
357;SDS011;167;47.558;7.602;2022-08-01T00:29:30;3.30;;;2.53;;
357;SDS011;167;47.558;7.602;2022-08-01T00:31:56;2.87;;;2.73;;
357;SDS011;167;47.558;7.602;2022-08-01T00:34:22;2.90;;;2.80;;
357;SDS011;167;47.558;7.602;2022-08-01T00:36:48;2.00;;;1.90;;
357;SDS011;167;47.558;7.602;2022-08-01T00:39:14;2.10;;;2.00;;
357;SDS011;167;47.558;7.602;2022-08-01T00:41:40;2.37;;;2.20;;
357;SDS011;167;47.558;7.602;2022-08-01T00:44:06;2.30;;;2.10;;
357;SDS011;167;47.558;7.602;2022-08-01T00:46:32;2.50;;;2.27;;
357;SDS011;167;47.558;7.602;2022-08-01T00:48:59;1.97;;;1.87;;
357;SDS011;167;47.558;7.602;2022-08-01T00:51:25;1.77;;;1.77;;
357;SDS011;167;47.558;7.602;2022-08-01T00:53:52;2.63;;;2.23;;
357;SDS011;167;47.558;7.602;2022-08-01T00:56:19;2.30;;;2.17;;
357;SDS011;167;47.558;7.602;2022-08-01T00:58:46;2.13;;;1.93;;
357;SDS011;167;47.558;7.602;2022-08-01T01:01:12;2.20;;;2.10;;
357;SDS011;167;47.558;7.602;2022-08-01T01:03:38;2.50;;;2.30;;
357;SDS011;167;47.558;7.602;2022-08-01T01:06:11;2.87;;;2.77;;
357;SDS011;167;47.558;7.602;2022-08-01T01:08:43;3.53;;;3.33;;
357;SDS011;167;47.558;7.602;2022-08-01T01:11:12;3.90;;;3.60;;
357;SDS011;167;47.558;7.602;2022-08-01T01:13:43;2.97;;;2.70;;
357;SDS011;167;47.558;7.602;2022-08-01T01:16:13;3.40;;;3.20;;
357;SDS011;167;47.558;7.602;2022-08-01T01:21:13;2.67;;;2.47;;
357;SDS011;167;47.558;7.602;2022-08-01T01:26:29;3.30;;;3.20;;
357;SDS011;167;47.558;7.602;2022-08-01T01:31:31;2.93;;;2.83;;
357;SDS011;167;47.558;7.602;2022-08-01T01:33:58;4.57;;;3.30;;
357;SDS011;167;47.558;7.602;2022-08-01T01:36:25;2.83;;;2.73;;
357;SDS011;167;47.558;7.602;2022-08-01T01:38:52;3.30;;;3.10;;
357;SDS011;167;47.558;7.602;2022-08-01T01:41:19;2.70;;;2.60;;
357;SDS011;167;47.558;7.602;2022-08-01T01:43:46;3.03;;;2.83;;
357;SDS011;167;47.558;7.602;2022-08-01T01:46:12;3.27;;;2.90;;
357;SDS011;167;47.558;7.602;2022-08-01T01:48:41;3.27;;;3.07;;
357;SDS011;167;47.558;7.602;2022-08-01T01:51:09;3.67;;;3.37;;
357;SDS011;167;47.558;7.602;2022-08-01T01:53:35;3.00;;;2.50;;
357;SDS011;167;47.558;7.602;2022-08-01T01:56:02;3.00;;;2.90;;
357;SDS011;167;47.558;7.602;2022-08-01T01:58:28;4.53;;;3.27;;
357;SDS011;167;47.558;7.602;2022-08-01T02:00:56;3.10;;;2.90;;
357;SDS011;167;47.558;7.602;2022-08-01T02:03:22;2.67;;;2.53;;
357;SDS011;167;47.558;7.602;2022-08-01T02:05:50;2.77;;;2.57;;
357;SDS011;167;47.558;7.602;2022-08-01T02:08:17;2.60;;;2.50;;
357;SDS011;167;47.558;7.602;2022-08-01T02:10:44;3.10;;;2.90;;
357;SDS011;167;47.558;7.602;2022-08-01T02:13:30;2.80;;;2.60;;
357;SDS011;167;47.558;7.602;2022-08-01T02:15:57;2.70;;;2.60;;
357;SDS011;167;47.558;7.602;2022-08-01T02:18:23;3.50;;;3.13;;
357;SDS011;167;47.558;7.602;2022-08-01T02:20:50;3.00;;;2.80;;
357;SDS011;167;47.558;7.602;2022-08-01T02:23:18;3.00;;;2.90;;
357;SDS011;167;47.558;7.602;2022-08-01T02:25:50;3.40;;;3.10;;
357;SDS011;167;47.558;7.602;2022-08-01T02:28:25;3.63;;;3.33;;
357;SDS011;167;47.558;7.602;2022-08-01T02:30:53;2.80;;;2.60;;
357;SDS011;167;47.558;7.602;2022-08-01T02:33:23;2.80;;;2.60;;
357;SDS011;167;47.558;7.602;2022-08-01T02:35:51;2.50;;;2.40;;
357;SDS011;167;47.558;7.602;2022-08-01T02:38:18;3.00;;;2.90;;
357;SDS011;167;47.558;7.602;2022-08-01T02:40:46;2.63;;;2.53;;
357;SDS011;167;47.558;7.602;2022-08-01T02:43:14;2.70;;;2.60;;
357;SDS011;167;47.558;7.602;2022-08-01T02:45:43;3.10;;;2.90;;
357;SDS011;167;47.558;7.602;2022-08-01T02:48:13;2.60;;;2.50;;
357;SDS011;167;47.558;7.602;2022-08-01T02:50:42;2.90;;;2.70;;
357;SDS011;167;47.558;7.602;2022-08-01T02:53:08;2.47;;;2.37;;
357;SDS011;167;47.558;7.602;2022-08-01T02:55:35;3.10;;;3.00;;
357;SDS011;167;47.558;7.602;2022-08-01T02:58:02;3.07;;;2.87;;
357;SDS011;167;47.558;7.602;2022-08-01T03:00:29;3.63;;;2.80;;
357;SDS011;167;47.558;7.602;2022-08-01T03:02:55;2.87;;;2.73;;
357;SDS011;167;47.558;7.602;2022-08-01T03:05:22;2.40;;;2.30;;
357;SDS011;167;47.558;7.602;2022-08-01T03:07:49;2.40;;;2.20;;
357;SDS011;167;47.558;7.602;2022-08-01T03:10:16;3.83;;;2.40;;
357;SDS011;167;47.558;7.602;2022-08-01T03:12:42;2.77;;;2.57;;
357;SDS011;167;47.558;7.602;2022-08-01T03:15:11;2.60;;;2.50;;
357;SDS011;167;47.558;7.602;2022-08-01T03:17:38;3.03;;;2.93;;
357;SDS011;167;47.558;7.602;2022-08-01T03:20:05;2.40;;;2.30;;
357;SDS011;167;47.558;7.602;2022-08-01T03:22:33;2.67;;;2.50;;
357;SDS011;167;47.558;7.602;2022-08-01T03:25:00;2.57;;;2.47;;
357;SDS011;167;47.558;7.602;2022-08-01T03:27:28;2.10;;;2.00;;
357;SDS011;167;47.558;7.602;2022-08-01T03:29:55;2.70;;;2.50;;
357;SDS011;167;47.558;7.602;2022-08-01T03:32:21;3.20;;;2.97;;
357;SDS011;167;47.558;7.602;2022-08-01T03:34:48;2.30;;;2.20;;
357;SDS011;167;47.558;7.602;2022-08-01T03:37:17;2.60;;;2.50;;
357;SDS011;167;47.558;7.602;2022-08-01T03:39:50;2.63;;;2.53;;
357;SDS011;167;47.558;7.602;2022-08-01T03:42:18;2.80;;;2.63;;
357;SDS011;167;47.558;7.602;2022-08-01T03:44:47;2.37;;;2.27;;
357;SDS011;167;47.558;7.602;2022-08-01T03:47:14;2.57;;;2.47;;
357;SDS011;167;47.558;7.602;2022-08-01T03:49:42;2.70;;;2.60;;
357;SDS011;167;47.558;7.602;2022-08-01T03:52:08;2.67;;;2.50;;
357;SDS011;167;47.558;7.602;2022-08-01T03:54:36;2.80;;;2.70;;
357;SDS011;167;47.558;7.602;2022-08-01T03:57:02;2.37;;;2.27;;
357;SDS011;167;47.558;7.602;2022-08-01T03:59:29;3.07;;;2.83;;
357;SDS011;167;47.558;7.602;2022-08-01T04:01:56;2.23;;;2.13;;
357;SDS011;167;47.558;7.602;2022-08-01T04:04:23;3.00;;;2.37;;
357;SDS011;167;47.558;7.602;2022-08-01T04:06:50;3.30;;;3.10;;
357;SDS011;167;47.558;7.602;2022-08-01T04:09:19;2.77;;;2.53;;
357;SDS011;167;47.558;7.602;2022-08-01T04:11:45;3.00;;;2.90;;
357;SDS011;167;47.558;7.602;2022-08-01T04:14:12;2.33;;;2.23;;
357;SDS011;167;47.558;7.602;2022-08-01T04:16:38;2.57;;;2.37;;
357;SDS011;167;47.558;7.602;2022-08-01T04:19:04;2.70;;;2.60;;
357;SDS011;167;47.558;7.602;2022-08-01T04:21:32;3.17;;;2.97;;
357;SDS011;167;47.558;7.602;2022-08-01T04:24:01;2.90;;;2.80;;
357;SDS011;167;47.558;7.602;2022-08-01T04:26:29;3.43;;;2.97;;
357;SDS011;167;47.558;7.602;2022-08-01T04:28:58;2.90;;;2.27;;
357;SDS011;167;47.558;7.602;2022-08-01T04:31:26;3.00;;;2.80;;
357;SDS011;167;47.558;7.602;2022-08-01T04:33:53;2.57;;;2.47;;
357;SDS011;167;47.558;7.602;2022-08-01T04:36:21;2.67;;;2.57;;
357;SDS011;167;47.558;7.602;2022-08-01T04:38:49;2.60;;;2.50;;
357;SDS011;167;47.558;7.602;2022-08-01T04:41:16;3.40;;;3.20;;
357;SDS011;167;47.558;7.602;2022-08-01T04:43:43;3.27;;;3.07;;
357;SDS011;167;47.558;7.602;2022-08-01T04:46:09;3.20;;;2.60;;
357;SDS011;167;47.558;7.602;2022-08-01T04:48:38;3.33;;;3.23;;
357;SDS011;167;47.558;7.602;2022-08-01T04:51:11;3.30;;;3.20;;
357;SDS011;167;47.558;7.602;2022-08-01T04:53:38;3.57;;;3.37;;
357;SDS011;167;47.558;7.602;2022-08-01T04:56:04;3.87;;;3.57;;
357;SDS011;167;47.558;7.602;2022-08-01T04:58:30;3.90;;;3.60;;
357;SDS011;167;47.558;7.602;2022-08-01T05:00:56;2.90;;;2.80;;
357;SDS011;167;47.558;7.602;2022-08-01T05:03:22;4.50;;;4.20;;
357;SDS011;167;47.558;7.602;2022-08-01T05:05:48;3.50;;;3.30;;
357;SDS011;167;47.558;7.602;2022-08-01T05:08:14;3.50;;;3.20;;
357;SDS011;167;47.558;7.602;2022-08-01T05:10:41;4.40;;;3.67;;
357;SDS011;167;47.558;7.602;2022-08-01T05:13:07;4.23;;;3.60;;
357;SDS011;167;47.558;7.602;2022-08-01T05:15:36;3.20;;;3.03;;
357;SDS011;167;47.558;7.602;2022-08-01T05:18:03;3.30;;;3.00;;
357;SDS011;167;47.558;7.602;2022-08-01T05:20:29;3.30;;;3.10;;
357;SDS011;167;47.558;7.602;2022-08-01T05:22:55;3.93;;;3.73;;
357;SDS011;167;47.558;7.602;2022-08-01T05:25:22;3.30;;;3.00;;
357;SDS011;167;47.558;7.602;2022-08-01T05:27:48;3.50;;;3.30;;
357;SDS011;167;47.558;7.602;2022-08-01T05:30:14;3.33;;;3.13;;
357;SDS011;167;47.558;7.602;2022-08-01T05:32:40;3.77;;;3.40;;
357;SDS011;167;47.558;7.602;2022-08-01T05:35:07;4.60;;;3.80;;
357;SDS011;167;47.558;7.602;2022-08-01T05:37:33;4.63;;;3.93;;
357;SDS011;167;47.558;7.602;2022-08-01T05:39:59;4.13;;;3.93;;
357;SDS011;167;47.558;7.602;2022-08-01T05:42:25;3.67;;;3.47;;
357;SDS011;167;47.558;7.602;2022-08-01T05:44:51;3.27;;;3.07;;
357;SDS011;167;47.558;7.602;2022-08-01T05:47:17;3.27;;;3.07;;
357;SDS011;167;47.558;7.602;2022-08-01T05:49:44;3.67;;;3.47;;
357;SDS011;167;47.558;7.602;2022-08-01T05:52:10;3.33;;;3.17;;
357;SDS011;167;47.558;7.602;2022-08-01T05:54:36;3.77;;;3.57;;
357;SDS011;167;47.558;7.602;2022-08-01T05:57:02;3.83;;;3.53;;
357;SDS011;167;47.558;7.602;2022-08-01T05:59:29;3.50;;;3.30;;
357;SDS011;167;47.558;7.602;2022-08-01T06:01:55;3.63;;;3.43;;
357;SDS011;167;47.558;7.602;2022-08-01T06:04:21;3.93;;;3.70;;
357;SDS011;167;47.558;7.602;2022-08-01T06:06:47;2.67;;;2.57;;
357;SDS011;167;47.558;7.602;2022-08-01T06:09:14;3.67;;;3.37;;
357;SDS011;167;47.558;7.602;2022-08-01T06:11:40;3.73;;;3.43;;
357;SDS011;167;47.558;7.602;2022-08-01T06:14:06;3.30;;;3.13;;
357;SDS011;167;47.558;7.602;2022-08-01T06:16:32;3.60;;;3.30;;
357;SDS011;167;47.558;7.602;2022-08-01T06:18:58;3.43;;;3.10;;
357;SDS011;167;47.558;7.602;2022-08-01T06:21:24;3.70;;;3.50;;
357;SDS011;167;47.558;7.602;2022-08-01T06:23:50;4.10;;;3.57;;
357;SDS011;167;47.558;7.602;2022-08-01T06:26:19;3.33;;;3.13;;
357;SDS011;167;47.558;7.602;2022-08-01T06:28:46;3.17;;;2.97;;
357;SDS011;167;47.558;7.602;2022-08-01T06:31:12;3.40;;;3.20;;
357;SDS011;167;47.558;7.602;2022-08-01T06:33:40;3.60;;;3.40;;
357;SDS011;167;47.558;7.602;2022-08-01T06:36:06;3.37;;;3.27;;
357;SDS011;167;47.558;7.602;2022-08-01T06:38:32;3.93;;;3.63;;
357;SDS011;167;47.558;7.602;2022-08-01T06:40:58;3.63;;;3.43;;
357;SDS011;167;47.558;7.602;2022-08-01T06:43:24;3.00;;;2.80;;
357;SDS011;167;47.558;7.602;2022-08-01T06:45:50;3.67;;;3.37;;
357;SDS011;167;47.558;7.602;2022-08-01T06:48:16;3.03;;;2.93;;
357;SDS011;167;47.558;7.602;2022-08-01T06:50:42;7.03;;;2.93;;
357;SDS011;167;47.558;7.602;2022-08-01T06:53:08;3.13;;;2.93;;
357;SDS011;167;47.558;7.602;2022-08-01T06:55:35;3.27;;;3.07;;
357;SDS011;167;47.558;7.602;2022-08-01T06:58:01;3.90;;;3.70;;
357;SDS011;167;47.558;7.602;2022-08-01T07:00:27;3.17;;;3.07;;
357;SDS011;167;47.558;7.602;2022-08-01T07:02:54;2.90;;;2.70;;
357;SDS011;167;47.558;7.602;2022-08-01T07:05:21;3.00;;;2.90;;
357;SDS011;167;47.558;7.602;2022-08-01T07:07:47;2.80;;;2.60;;
357;SDS011;167;47.558;7.602;2022-08-01T07:10:13;2.10;;;2.00;;
357;SDS011;167;47.558;7.602;2022-08-01T07:12:39;2.80;;;2.70;;
357;SDS011;167;47.558;7.602;2022-08-01T07:15:06;3.87;;;2.20;;
357;SDS011;167;47.558;7.602;2022-08-01T07:17:36;2.60;;;2.40;;
357;SDS011;167;47.558;7.602;2022-08-01T07:20:02;1.93;;;1.93;;
357;SDS011;167;47.558;7.602;2022-08-01T07:22:29;2.07;;;1.90;;
357;SDS011;167;47.558;7.602;2022-08-01T07:24:55;2.00;;;2.00;;
357;SDS011;167;47.558;7.602;2022-08-01T07:27:21;1.80;;;1.77;;
357;SDS011;167;47.558;7.602;2022-08-01T07:29:47;1.90;;;1.90;;
357;SDS011;167;47.558;7.602;2022-08-01T07:32:13;1.60;;;1.60;;
357;SDS011;167;47.558;7.602;2022-08-01T07:34:39;2.00;;;1.90;;
357;SDS011;167;47.558;7.602;2022-08-01T07:37:05;2.00;;;1.90;;
357;SDS011;167;47.558;7.602;2022-08-01T07:39:31;1.60;;;1.50;;
357;SDS011;167;47.558;7.602;2022-08-01T07:41:57;1.40;;;1.40;;
357;SDS011;167;47.558;7.602;2022-08-01T07:44:23;1.37;;;1.27;;
357;SDS011;167;47.558;7.602;2022-08-01T07:46:49;1.80;;;1.70;;
357;SDS011;167;47.558;7.602;2022-08-01T07:49:15;1.20;;;1.20;;
357;SDS011;167;47.558;7.602;2022-08-01T07:51:41;1.17;;;1.17;;
357;SDS011;167;47.558;7.602;2022-08-01T07:54:07;1.20;;;1.20;;
357;SDS011;167;47.558;7.602;2022-08-01T07:56:33;1.30;;;1.30;;
357;SDS011;167;47.558;7.602;2022-08-01T07:58:59;1.40;;;1.30;;
357;SDS011;167;47.558;7.602;2022-08-01T08:01:25;1.20;;;1.20;;
357;SDS011;167;47.558;7.602;2022-08-01T08:03:51;1.10;;;1.10;;
357;SDS011;167;47.558;7.602;2022-08-01T08:06:17;1.17;;;1.17;;
357;SDS011;167;47.558;7.602;2022-08-01T08:08:43;1.33;;;1.33;;
357;SDS011;167;47.558;7.602;2022-08-01T08:11:09;1.17;;;1.17;;
357;SDS011;167;47.558;7.602;2022-08-01T08:13:35;1.30;;;1.20;;
357;SDS011;167;47.558;7.602;2022-08-01T08:16:01;1.30;;;1.20;;
357;SDS011;167;47.558;7.602;2022-08-01T08:18:28;3.67;;;1.40;;
357;SDS011;167;47.558;7.602;2022-08-01T08:20:53;0.90;;;0.90;;
357;SDS011;167;47.558;7.602;2022-08-01T08:23:19;1.00;;;1.00;;
357;SDS011;167;47.558;7.602;2022-08-01T08:26:04;1.02;;;1.02;;
357;SDS011;167;47.558;7.602;2022-08-01T08:28:30;0.73;;;0.73;;
357;SDS011;167;47.558;7.602;2022-08-01T08:30:56;0.80;;;0.80;;
357;SDS011;167;47.558;7.602;2022-08-01T08:33:22;0.82;;;0.82;;
357;SDS011;167;47.558;7.602;2022-08-01T08:35:48;0.93;;;0.80;;
357;SDS011;167;47.558;7.602;2022-08-01T08:38:15;0.88;;;0.88;;
357;SDS011;167;47.558;7.602;2022-08-01T08:40:41;1.00;;;1.00;;
357;SDS011;167;47.558;7.602;2022-08-01T08:43:07;0.85;;;0.85;;
357;SDS011;167;47.558;7.602;2022-08-01T08:45:33;0.80;;;0.80;;
357;SDS011;167;47.558;7.602;2022-08-01T08:48:00;0.70;;;0.70;;
357;SDS011;167;47.558;7.602;2022-08-01T08:50:26;0.70;;;0.70;;
357;SDS011;167;47.558;7.602;2022-08-01T08:52:53;0.85;;;0.85;;
357;SDS011;167;47.558;7.602;2022-08-01T08:55:20;0.90;;;0.90;;
357;SDS011;167;47.558;7.602;2022-08-01T08:57:46;0.80;;;0.80;;
357;SDS011;167;47.558;7.602;2022-08-01T09:00:13;0.80;;;0.80;;
357;SDS011;167;47.558;7.602;2022-08-01T09:02:43;0.60;;;0.60;;
357;SDS011;167;47.558;7.602;2022-08-01T09:05:09;1.00;;;1.00;;
357;SDS011;167;47.558;7.602;2022-08-01T09:07:35;1.00;;;1.00;;
357;SDS011;167;47.558;7.602;2022-08-01T09:10:02;1.08;;;1.05;;
357;SDS011;167;47.558;7.602;2022-08-01T09:12:28;1.00;;;1.00;;
357;SDS011;167;47.558;7.602;2022-08-01T09:14:54;1.23;;;1.02;;
357;SDS011;167;47.558;7.602;2022-08-01T09:17:20;0.77;;;0.77;;
357;SDS011;167;47.558;7.602;2022-08-01T09:19:48;0.80;;;0.80;;
357;SDS011;167;47.558;7.602;2022-08-01T09:22:17;0.80;;;0.80;;
357;SDS011;167;47.558;7.602;2022-08-01T09:27:29;0.75;;;0.75;;
357;SDS011;167;47.558;7.602;2022-08-01T09:30:05;0.90;;;0.90;;
357;SDS011;167;47.558;7.602;2022-08-01T09:32:32;0.90;;;0.90;;
357;SDS011;167;47.558;7.602;2022-08-01T09:34:58;0.60;;;0.60;;
357;SDS011;167;47.558;7.602;2022-08-01T09:37:44;0.70;;;0.70;;
357;SDS011;167;47.558;7.602;2022-08-01T09:40:10;0.82;;;0.70;;
357;SDS011;167;47.558;7.602;2022-08-01T09:42:36;0.73;;;0.73;;
357;SDS011;167;47.558;7.602;2022-08-01T09:45:02;0.60;;;0.60;;
357;SDS011;167;47.558;7.602;2022-08-01T09:47:38;0.80;;;0.80;;
357;SDS011;167;47.558;7.602;2022-08-01T09:50:04;0.77;;;0.77;;
357;SDS011;167;47.558;7.602;2022-08-01T09:52:30;0.63;;;0.47;;
357;SDS011;167;47.558;7.602;2022-08-01T09:57:22;1.70;;;1.70;;
357;SDS011;167;47.558;7.602;2022-08-01T09:59:49;2.20;;;2.10;;
357;SDS011;167;47.558;7.602;2022-08-01T10:02:31;0.40;;;0.40;;
357;SDS011;167;47.558;7.602;2022-08-01T10:04:58;0.50;;;0.50;;
357;SDS011;167;47.558;7.602;2022-08-01T10:07:24;0.40;;;0.40;;
357;SDS011;167;47.558;7.602;2022-08-01T10:09:50;2.45;;;0.47;;
357;SDS011;167;47.558;7.602;2022-08-01T10:12:18;0.57;;;0.50;;
357;SDS011;167;47.558;7.602;2022-08-01T10:14:45;0.65;;;0.40;;
357;SDS011;167;47.558;7.602;2022-08-01T10:17:14;0.40;;;0.40;;
357;SDS011;167;47.558;7.602;2022-08-01T10:19:41;0.40;;;0.40;;
357;SDS011;167;47.558;7.602;2022-08-01T10:22:08;0.55;;;0.55;;
357;SDS011;167;47.558;7.602;2022-08-01T10:24:36;0.40;;;0.40;;
357;SDS011;167;47.558;7.602;2022-08-01T10:27:03;0.40;;;0.40;;
357;SDS011;167;47.558;7.602;2022-08-01T10:29:31;0.50;;;0.50;;
357;SDS011;167;47.558;7.602;2022-08-01T10:32:01;0.43;;;0.40;;
357;SDS011;167;47.558;7.602;2022-08-01T10:34:28;0.40;;;0.40;;
357;SDS011;167;47.558;7.602;2022-08-01T10:36:55;0.30;;;0.30;;
357;SDS011;167;47.558;7.602;2022-08-01T10:39:21;0.55;;;0.55;;
357;SDS011;167;47.558;7.602;2022-08-01T10:41:48;0.40;;;0.40;;
357;SDS011;167;47.558;7.602;2022-08-01T10:44:14;0.50;;;0.40;;
357;SDS011;167;47.558;7.602;2022-08-01T10:46:42;1.92;;;0.50;;
357;SDS011;167;47.558;7.602;2022-08-01T10:49:10;0.40;;;0.40;;
357;SDS011;167;47.558;7.602;2022-08-01T10:51:37;2.80;;;0.90;;
357;SDS011;167;47.558;7.602;2022-08-01T10:54:08;0.30;;;0.30;;
357;SDS011;167;47.558;7.602;2022-08-01T10:56:47;0.50;;;0.50;;
357;SDS011;167;47.558;7.602;2022-08-01T10:59:15;0.60;;;0.60;;
357;SDS011;167;47.558;7.602;2022-08-01T11:01:54;0.45;;;0.45;;
357;SDS011;167;47.558;7.602;2022-08-01T11:04:22;0.50;;;0.50;;
357;SDS011;167;47.558;7.602;2022-08-01T11:07:06;2.05;;;0.60;;
357;SDS011;167;47.558;7.602;2022-08-01T11:09:40;0.70;;;0.70;;
357;SDS011;167;47.558;7.602;2022-08-01T11:12:13;0.63;;;0.45;;
357;SDS011;167;47.558;7.602;2022-08-01T11:23:20;0.73;;;0.40;;
357;SDS011;167;47.558;7.602;2022-08-01T11:25:21;0.32;;;0.32;;
357;SDS011;167;47.558;7.602;2022-08-01T11:27:47;0.68;;;0.68;;
357;SDS011;167;47.558;7.602;2022-08-01T11:35:11;2.38;;;0.65;;
357;SDS011;167;47.558;7.602;2022-08-01T11:37:38;0.50;;;0.50;;
357;SDS011;167;47.558;7.602;2022-08-01T11:40:17;0.90;;;0.90;;
357;SDS011;167;47.558;7.602;2022-08-01T11:42:43;1.20;;;1.20;;
357;SDS011;167;47.558;7.602;2022-08-01T11:45:09;0.70;;;0.70;;
357;SDS011;167;47.558;7.602;2022-08-01T11:47:43;0.63;;;0.63;;
357;SDS011;167;47.558;7.602;2022-08-01T11:53:05;0.60;;;0.60;;
357;SDS011;167;47.558;7.602;2022-08-01T11:55:32;2.08;;;1.08;;
357;SDS011;167;47.558;7.602;2022-08-01T11:58:00;1.35;;;0.82;;
357;SDS011;167;47.558;7.602;2022-08-01T12:00:27;0.70;;;0.70;;
357;SDS011;167;47.558;7.602;2022-08-01T12:03:11;0.50;;;0.50;;
357;SDS011;167;47.558;7.602;2022-08-01T12:05:37;0.45;;;0.45;;
357;SDS011;167;47.558;7.602;2022-08-01T12:08:03;0.50;;;0.50;;
357;SDS011;167;47.558;7.602;2022-08-01T12:10:32;0.60;;;0.60;;
357;SDS011;167;47.558;7.602;2022-08-01T12:13:02;0.63;;;0.63;;
357;SDS011;167;47.558;7.602;2022-08-01T12:15:29;0.65;;;0.65;;
357;SDS011;167;47.558;7.602;2022-08-01T12:17:57;0.68;;;0.68;;
357;SDS011;167;47.558;7.602;2022-08-01T12:20:23;0.73;;;0.73;;
357;SDS011;167;47.558;7.602;2022-08-01T12:22:53;0.50;;;0.50;;
357;SDS011;167;47.558;7.602;2022-08-01T12:25:19;0.52;;;0.50;;
357;SDS011;167;47.558;7.602;2022-08-01T12:27:45;0.45;;;0.45;;
357;SDS011;167;47.558;7.602;2022-08-01T12:30:13;0.40;;;0.40;;
357;SDS011;167;47.558;7.602;2022-08-01T12:32:40;0.55;;;0.55;;
357;SDS011;167;47.558;7.602;2022-08-01T12:35:13;0.70;;;0.70;;
357;SDS011;167;47.558;7.602;2022-08-01T12:37:41;0.50;;;0.50;;
357;SDS011;167;47.558;7.602;2022-08-01T12:40:09;0.70;;;0.70;;
357;SDS011;167;47.558;7.602;2022-08-01T12:42:39;0.68;;;0.68;;
357;SDS011;167;47.558;7.602;2022-08-01T12:45:07;0.60;;;0.60;;
357;SDS011;167;47.558;7.602;2022-08-01T12:47:34;1.47;;;0.73;;
357;SDS011;167;47.558;7.602;2022-08-01T12:50:00;1.42;;;0.60;;
357;SDS011;167;47.558;7.602;2022-08-01T12:52:27;4.85;;;0.80;;
357;SDS011;167;47.558;7.602;2022-08-01T12:55:06;0.60;;;0.60;;
357;SDS011;167;47.558;7.602;2022-08-01T12:57:33;0.60;;;0.60;;
357;SDS011;167;47.558;7.602;2022-08-01T13:00:09;0.70;;;0.70;;
357;SDS011;167;47.558;7.602;2022-08-01T13:02:36;0.50;;;0.50;;
357;SDS011;167;47.558;7.602;2022-08-01T13:05:03;0.60;;;0.60;;
357;SDS011;167;47.558;7.602;2022-08-01T13:10:02;0.55;;;0.50;;
357;SDS011;167;47.558;7.602;2022-08-01T13:12:29;0.90;;;0.90;;
357;SDS011;167;47.558;7.602;2022-08-01T13:14:55;0.70;;;0.70;;
357;SDS011;167;47.558;7.602;2022-08-01T13:17:34;0.77;;;0.77;;
357;SDS011;167;47.558;7.602;2022-08-01T13:20:02;0.70;;;0.70;;
357;SDS011;167;47.558;7.602;2022-08-01T13:22:35;0.73;;;0.73;;
357;SDS011;167;47.558;7.602;2022-08-01T13:25:14;0.90;;;0.90;;
357;SDS011;167;47.558;7.602;2022-08-01T13:27:40;0.90;;;0.90;;
357;SDS011;167;47.558;7.602;2022-08-01T13:30:14;2.20;;;0.60;;
357;SDS011;167;47.558;7.602;2022-08-01T13:32:40;0.63;;;0.63;;
357;SDS011;167;47.558;7.602;2022-08-01T13:35:09;0.70;;;0.70;;
357;SDS011;167;47.558;7.602;2022-08-01T13:37:37;0.70;;;0.70;;
357;SDS011;167;47.558;7.602;2022-08-01T13:40:03;0.70;;;0.70;;
357;SDS011;167;47.558;7.602;2022-08-01T13:42:29;0.97;;;0.97;;
357;SDS011;167;47.558;7.602;2022-08-01T13:44:55;0.90;;;0.90;;
357;SDS011;167;47.558;7.602;2022-08-01T13:47:21;0.67;;;0.67;;
357;SDS011;167;47.558;7.602;2022-08-01T13:49:47;0.60;;;0.60;;
357;SDS011;167;47.558;7.602;2022-08-01T13:52:13;0.70;;;0.70;;
357;SDS011;167;47.558;7.602;2022-08-01T13:54:39;0.63;;;0.63;;
357;SDS011;167;47.558;7.602;2022-08-01T13:57:05;0.73;;;0.73;;
357;SDS011;167;47.558;7.602;2022-08-01T13:59:31;0.60;;;0.60;;
357;SDS011;167;47.558;7.602;2022-08-01T14:01:57;0.90;;;0.90;;
357;SDS011;167;47.558;7.602;2022-08-01T14:04:23;0.83;;;0.83;;
357;SDS011;167;47.558;7.602;2022-08-01T14:06:49;0.80;;;0.80;;
357;SDS011;167;47.558;7.602;2022-08-01T14:09:15;1.00;;;1.00;;
357;SDS011;167;47.558;7.602;2022-08-01T14:11:44;0.87;;;0.87;;
357;SDS011;167;47.558;7.602;2022-08-01T14:14:10;0.80;;;0.70;;
357;SDS011;167;47.558;7.602;2022-08-01T14:16:36;1.13;;;1.13;;
357;SDS011;167;47.558;7.602;2022-08-01T14:19:02;1.00;;;1.00;;
357;SDS011;167;47.558;7.602;2022-08-01T14:21:28;1.10;;;0.90;;
357;SDS011;167;47.558;7.602;2022-08-01T14:23:54;0.80;;;0.80;;
357;SDS011;167;47.558;7.602;2022-08-01T14:26:20;1.00;;;1.00;;
357;SDS011;167;47.558;7.602;2022-08-01T14:28:46;1.07;;;1.07;;
357;SDS011;167;47.558;7.602;2022-08-01T14:31:12;0.77;;;0.77;;
357;SDS011;167;47.558;7.602;2022-08-01T14:33:39;0.80;;;0.80;;
357;SDS011;167;47.558;7.602;2022-08-01T14:36:05;0.90;;;0.90;;
357;SDS011;167;47.558;7.602;2022-08-01T14:38:31;1.13;;;1.13;;
357;SDS011;167;47.558;7.602;2022-08-01T14:40:57;0.80;;;0.80;;
357;SDS011;167;47.558;7.602;2022-08-01T14:43:24;1.20;;;1.20;;
357;SDS011;167;47.558;7.602;2022-08-01T14:45:51;0.90;;;0.90;;
357;SDS011;167;47.558;7.602;2022-08-01T14:48:19;1.20;;;1.20;;
357;SDS011;167;47.558;7.602;2022-08-01T14:50:45;1.13;;;1.13;;
357;SDS011;167;47.558;7.602;2022-08-01T14:53:11;1.23;;;1.23;;
357;SDS011;167;47.558;7.602;2022-08-01T14:55:37;1.10;;;1.10;;
357;SDS011;167;47.558;7.602;2022-08-01T14:58:03;0.97;;;0.97;;
357;SDS011;167;47.558;7.602;2022-08-01T15:00:29;0.93;;;0.93;;
357;SDS011;167;47.558;7.602;2022-08-01T15:02:55;1.00;;;1.00;;
357;SDS011;167;47.558;7.602;2022-08-01T15:05:22;1.07;;;1.07;;
357;SDS011;167;47.558;7.602;2022-08-01T15:07:48;1.17;;;1.00;;
357;SDS011;167;47.558;7.602;2022-08-01T15:10:14;1.00;;;1.00;;
357;SDS011;167;47.558;7.602;2022-08-01T15:12:41;1.30;;;1.30;;
357;SDS011;167;47.558;7.602;2022-08-01T15:15:08;1.20;;;1.20;;
357;SDS011;167;47.558;7.602;2022-08-01T15:17:34;1.50;;;1.40;;
357;SDS011;167;47.558;7.602;2022-08-01T15:20:02;1.20;;;1.20;;
357;SDS011;167;47.558;7.602;2022-08-01T15:22:29;1.00;;;1.00;;
357;SDS011;167;47.558;7.602;2022-08-01T15:24:56;1.40;;;1.40;;
357;SDS011;167;47.558;7.602;2022-08-01T15:27:23;1.53;;;1.40;;
357;SDS011;167;47.558;7.602;2022-08-01T15:29:49;1.37;;;1.30;;
357;SDS011;167;47.558;7.602;2022-08-01T15:32:15;1.33;;;1.23;;
357;SDS011;167;47.558;7.602;2022-08-01T15:34:42;1.47;;;1.27;;
357;SDS011;167;47.558;7.602;2022-08-01T15:37:08;1.23;;;1.20;;
357;SDS011;167;47.558;7.602;2022-08-01T15:39:34;1.30;;;1.27;;
357;SDS011;167;47.558;7.602;2022-08-01T15:42:14;1.23;;;1.13;;
357;SDS011;167;47.558;7.602;2022-08-01T15:44:40;1.20;;;1.10;;
357;SDS011;167;47.558;7.602;2022-08-01T15:47:07;1.20;;;1.20;;
357;SDS011;167;47.558;7.602;2022-08-01T15:49:33;1.43;;;1.33;;
357;SDS011;167;47.558;7.602;2022-08-01T15:52:01;1.47;;;1.47;;
357;SDS011;167;47.558;7.602;2022-08-01T15:54:27;1.80;;;1.20;;
357;SDS011;167;47.558;7.602;2022-08-01T15:56:53;1.07;;;1.00;;
357;SDS011;167;47.558;7.602;2022-08-01T15:59:19;1.57;;;1.47;;
357;SDS011;167;47.558;7.602;2022-08-01T16:01:45;1.23;;;1.23;;
357;SDS011;167;47.558;7.602;2022-08-01T16:04:13;1.43;;;1.40;;
357;SDS011;167;47.558;7.602;2022-08-01T16:06:40;1.20;;;1.20;;
357;SDS011;167;47.558;7.602;2022-08-01T16:09:07;1.03;;;1.03;;
357;SDS011;167;47.558;7.602;2022-08-01T16:11:33;1.20;;;1.20;;
357;SDS011;167;47.558;7.602;2022-08-01T16:13:59;1.20;;;1.20;;
357;SDS011;167;47.558;7.602;2022-08-01T16:16:25;1.30;;;1.20;;